Allandale, Florida
Current Conditions -  °F | °C
As of 8:53 PM on Monday 24 Nov 2014 (Local Time) from KDAB Reporting Station
Scattered Clouds Scattered Clouds  
Wind Chill: 75°   Ceiling: Unl
Heat Index: 75°   Visibility: 10mi
Dew Point: 70°   Wind: 3mph
Humidity: 84%   Direction: 170°S
Pressure: 29.99"   Gusts: NA
Location:  29.1486°N, 81.0301°W
Report Text: KDAB 250153Z 17003KT 10SM FEW045 SCT150 24/21 A2999 RMK AO2 SLP154 T02390211
Loading
Personal Weather Stations






























Interactive Weather Map New forecast layout! Learn more

10-Day Weather Forecast

Advertisements
Track Severe Weather on mobile